createdAt,value
2018-03-28T00:00:36.197Z,949.73
2018-03-28T00:01:36.212Z,949.75
2018-03-28T00:02:36.228Z,949.75
2018-03-28T00:03:36.243Z,949.79
2018-03-28T00:04:36.263Z,949.79
2018-03-28T00:05:36.275Z,949.79
2018-03-28T00:06:36.291Z,949.78
2018-03-28T00:07:36.312Z,949.77
2018-03-28T00:08:36.373Z,949.7
2018-03-28T00:09:36.338Z,949.7
2018-03-28T00:10:36.354Z,949.63
2018-03-28T00:11:36.373Z,949.65
2018-03-28T00:12:36.386Z,949.67
2018-03-28T00:13:36.402Z,949.77
2018-03-28T00:14:36.417Z,949.75
2018-03-28T00:15:36.434Z,949.66
2018-03-28T00:16:36.449Z,949.59
2018-03-28T00:17:36.473Z,949.57
2018-03-28T00:18:36.482Z,949.6
2018-03-28T00:19:36.496Z,949.62
2018-03-28T00:20:36.512Z,949.62
2018-03-28T00:21:36.530Z,949.71
2018-03-28T00:22:36.543Z,949.62
2018-03-28T00:23:36.609Z,949.58
2018-03-28T00:24:36.575Z,949.53
2018-03-28T00:25:36.590Z,949.57
2018-03-28T00:26:36.607Z,949.55
2018-03-28T00:27:36.620Z,949.56
2018-03-28T00:28:36.634Z,949.51
2018-03-28T00:29:36.650Z,949.55
2018-03-28T00:30:36.672Z,949.57
2018-03-28T00:31:36.684Z,949.54
2018-03-28T00:32:36.703Z,949.49
2018-03-28T00:33:36.716Z,949.49
2018-03-28T00:34:36.732Z,949.5
2018-03-28T00:35:36.745Z,949.43
2018-03-28T00:36:36.763Z,949.45
2018-03-28T00:37:36.778Z,949.42
2018-03-28T00:38:36.843Z,949.41
2018-03-28T00:39:36.821Z,949.41
2018-03-28T00:40:36.825Z,949.38
2018-03-28T00:41:36.840Z,949.35
2018-03-28T00:42:36.854Z,949.32
2018-03-28T00:43:36.921Z,949.32
2018-03-28T00:44:36.885Z,949.29
2018-03-28T00:45:36.901Z,949.27
2018-03-28T00:46:36.927Z,949.26
2018-03-28T00:47:36.937Z,949.25
2018-03-28T00:48:36.950Z,949.25
2018-03-28T00:49:36.964Z,949.25
2018-03-28T00:50:36.981Z,949.22
2018-03-28T00:51:37.000Z,949.2
2018-03-28T00:52:37.012Z,949.22
2018-03-28T00:53:37.027Z,949.23
2018-03-28T00:54:37.042Z,949.19
2018-03-28T00:55:37.059Z,949.17
2018-03-28T00:56:37.073Z,949.2
2018-03-28T00:57:37.090Z,949.17
2018-03-28T00:58:37.155Z,949.19
2018-03-28T00:59:37.119Z,949.18
2018-03-28T01:00:37.135Z,949.18
2018-03-28T01:01:37.174Z,949.17
2018-03-28T01:02:37.168Z,949.16
2018-03-28T01:03:37.181Z,949.17
2018-03-28T01:04:37.200Z,949.2
2018-03-28T01:05:37.213Z,949.22
2018-03-28T01:06:37.229Z,949.14
2018-03-28T01:07:37.243Z,949.17
2018-03-28T01:08:37.262Z,949.2
2018-03-28T01:09:37.275Z,949.18
2018-03-28T01:10:37.292Z,949.13
2018-03-28T01:11:37.308Z,949.14
2018-03-28T01:12:37.322Z,949.13
2018-03-28T01:13:37.407Z,949.1
2018-03-28T01:14:37.351Z,949.1
2018-03-28T01:15:37.367Z,949.08
2018-03-28T01:16:37.382Z,949.08
2018-03-28T01:17:37.398Z,949.05
2018-03-28T01:18:37.412Z,949.03
2018-03-28T01:19:37.428Z,948.95
2018-03-28T01:20:37.444Z,948.96
2018-03-28T01:21:37.458Z,949.01
2018-03-28T01:22:37.473Z,948.97
2018-03-28T01:23:37.489Z,948.93
2018-03-28T01:24:37.556Z,948.97
2018-03-28T01:25:37.518Z,948.92
2018-03-28T01:26:37.533Z,948.91
2018-03-28T01:27:37.548Z,948.93
2018-03-28T01:28:37.564Z,948.92
2018-03-28T01:29:37.578Z,948.9
2018-03-28T01:30:37.593Z,948.87
2018-03-28T01:31:37.611Z,948.8
2018-03-28T01:32:37.624Z,948.87
2018-03-28T01:33:37.638Z,948.9
2018-03-28T01:34:37.653Z,948.85
2018-03-28T01:35:37.670Z,948.82
2018-03-28T01:36:37.683Z,948.85
2018-03-28T01:37:37.698Z,948.84
2018-03-28T01:38:37.712Z,948.82
2018-03-28T01:39:37.778Z,948.82
2018-03-28T01:40:37.742Z,948.85
2018-03-28T01:41:37.757Z,948.81
2018-03-28T01:42:37.774Z,948.83
2018-03-28T01:43:37.786Z,948.82
2018-03-28T01:44:37.801Z,948.77
2018-03-28T01:45:37.817Z,948.8
2018-03-28T01:46:37.832Z,948.76
2018-03-28T01:47:37.846Z,948.72
2018-03-28T01:48:37.863Z,948.71
2018-03-28T01:49:37.879Z,948.63
2018-03-28T01:50:37.893Z,948.66
2018-03-28T01:51:37.908Z,948.64
2018-03-28T01:52:37.938Z,948.64
2018-03-28T01:53:37.935Z,948.65
2018-03-28T01:54:38.003Z,948.65
2018-03-28T01:55:37.965Z,948.63
2018-03-28T01:56:37.981Z,948.64
2018-03-28T01:57:37.997Z,948.62
2018-03-28T01:58:38.015Z,948.63
2018-03-28T01:59:38.132Z,948.61
2018-03-28T02:00:38.043Z,948.57
2018-03-28T02:01:38.058Z,948.58
2018-03-28T02:02:38.071Z,948.57
2018-03-28T02:03:38.090Z,948.57
2018-03-28T02:04:38.103Z,948.5
2018-03-28T02:05:38.117Z,948.57
2018-03-28T02:06:38.133Z,948.54
2018-03-28T02:07:38.148Z,948.46
2018-03-28T02:08:38.163Z,948.4
2018-03-28T02:09:38.182Z,948.44
2018-03-28T02:10:38.197Z,948.43
2018-03-28T02:11:38.212Z,948.43
2018-03-28T02:12:38.227Z,948.4
2018-03-28T02:13:38.247Z,948.39
2018-03-28T02:14:38.258Z,948.39
2018-03-28T02:15:38.274Z,948.4
2018-03-28T02:16:38.288Z,948.37
2018-03-28T02:17:38.373Z,948.38
2018-03-28T02:18:38.320Z,948.35
2018-03-28T02:19:38.334Z,948.3
2018-03-28T02:20:38.349Z,948.32
2018-03-28T02:21:38.371Z,948.3
2018-03-28T02:22:38.380Z,948.27
2018-03-28T02:23:38.396Z,948.33
2018-03-28T02:24:38.410Z,948.31
2018-03-28T02:25:38.427Z,948.33
2018-03-28T02:26:38.442Z,948.22
2018-03-28T02:27:38.457Z,948.25
2018-03-28T02:28:38.472Z,948.27
2018-03-28T02:29:38.489Z,948.28
2018-03-28T02:30:38.505Z,948.27
2018-03-28T02:31:38.519Z,948.26
2018-03-28T02:32:38.535Z,948.28
2018-03-28T02:33:38.551Z,948.23
2018-03-28T02:34:38.563Z,948.21
2018-03-28T02:35:38.679Z,948.26
2018-03-28T02:36:38.597Z,948.21
2018-03-28T02:37:38.611Z,948.22
2018-03-28T02:38:38.625Z,948.21
2018-03-28T02:39:38.641Z,948.19
2018-03-28T02:40:41.059Z,948.18
2018-03-28T02:41:38.671Z,948.15
2018-03-28T02:42:38.687Z,948.18
2018-03-28T02:43:38.704Z,948.19
2018-03-28T02:44:38.717Z,948.19
2018-03-28T02:45:38.737Z,948.15
2018-03-28T02:46:38.749Z,948.15
2018-03-28T02:47:38.764Z,948.16
2018-03-28T02:48:38.778Z,948.14
2018-03-28T02:49:38.794Z,948.09
2018-03-28T02:50:38.812Z,948.11
2018-03-28T02:51:38.827Z,948.1
2018-03-28T02:52:38.841Z,948.11
2018-03-28T02:53:38.854Z,948.16
2018-03-28T02:54:38.870Z,948.1
2018-03-28T02:55:38.937Z,948.11
2018-03-28T02:56:38.902Z,948.06
2018-03-28T02:57:38.921Z,948.03
2018-03-28T02:58:38.931Z,948.09
2018-03-28T02:59:38.947Z,948.09
2018-03-28T03:00:39.011Z,948.05
2018-03-28T03:01:38.980Z,948.01
2018-03-28T03:02:38.999Z,948.05
2018-03-28T03:03:39.009Z,947.99
2018-03-28T03:04:39.026Z,948.04
2018-03-28T03:05:39.055Z,948.09
2018-03-28T03:06:39.062Z,948.06
2018-03-28T03:07:39.070Z,948.11
2018-03-28T03:08:39.085Z,948.05
2018-03-28T03:09:39.101Z,948.07
2018-03-28T03:10:39.116Z,948.08
2018-03-28T03:11:39.130Z,948.07
2018-03-28T03:12:39.146Z,948.03
2018-03-28T03:13:39.206Z,948.09
2018-03-28T03:14:39.180Z,948.12
2018-03-28T03:15:39.242Z,948.12
2018-03-28T03:16:39.208Z,948.14
2018-03-28T03:17:39.224Z,948.17
2018-03-28T03:18:39.238Z,948.14
2018-03-28T03:19:39.252Z,948.1
2018-03-28T03:20:39.273Z,948.12
2018-03-28T03:21:39.286Z,948.16
2018-03-28T03:22:39.301Z,948.12
2018-03-28T03:23:39.315Z,948.13
2018-03-28T03:24:39.330Z,948.11
2018-03-28T03:25:39.346Z,948.1
2018-03-28T03:26:39.361Z,948.09
2018-03-28T03:27:39.378Z,948.09
2018-03-28T03:28:39.393Z,948.07
2018-03-28T03:29:39.407Z,948.1
2018-03-28T03:30:39.425Z,948.09
2018-03-28T03:31:39.439Z,948.05
2018-03-28T03:32:39.454Z,948.06
2018-03-28T03:33:39.469Z,948.05
2018-03-28T03:34:39.495Z,948.03
2018-03-28T03:35:39.500Z,948.08
2018-03-28T03:36:39.516Z,948.03
2018-03-28T03:37:39.531Z,948.07
2018-03-28T03:38:39.545Z,948.06
2018-03-28T03:39:39.561Z,948.05
2018-03-28T03:40:39.575Z,948.08
2018-03-28T03:41:39.592Z,948.07
2018-03-28T03:42:39.609Z,948.05
2018-03-28T03:43:39.622Z,948.03
2018-03-28T03:44:39.636Z,948.06
2018-03-28T03:45:39.651Z,948.08
2018-03-28T03:46:39.668Z,948.14
2018-03-28T03:47:39.681Z,948.08
2018-03-28T03:48:39.697Z,948.06
2018-03-28T03:49:39.713Z,948.1
2018-03-28T03:50:39.728Z,948.09
2018-03-28T03:51:39.741Z,948.11
2018-03-28T03:52:39.757Z,948.07
2018-03-28T03:53:39.771Z,948.1
2018-03-28T03:54:39.786Z,948.09
2018-03-28T03:55:39.801Z,948.09
2018-03-28T03:56:39.822Z,948.11
2018-03-28T03:57:39.831Z,948.1
2018-03-28T03:58:39.845Z,948.12
2018-03-28T03:59:39.862Z,948.08
2018-03-28T04:00:39.876Z,948.04
2018-03-28T04:01:39.892Z,948.09
2018-03-28T04:02:39.907Z,947.99
2018-03-28T04:03:39.922Z,947.96
2018-03-28T04:04:39.937Z,948
2018-03-28T04:05:39.952Z,947.99
2018-03-28T04:06:39.965Z,947.94
2018-03-28T04:07:39.984Z,947.96
2018-03-28T04:08:39.997Z,948
2018-03-28T04:09:40.012Z,948
2018-03-28T04:10:40.027Z,947.98
2018-03-28T04:11:40.041Z,947.9
2018-03-28T04:12:40.057Z,947.92
2018-03-28T04:13:40.070Z,947.99
2018-03-28T04:14:40.090Z,947.97
2018-03-28T04:15:40.099Z,948.02
2018-03-28T04:16:40.165Z,948.01
2018-03-28T04:17:40.128Z,947.99
2018-03-28T04:18:40.143Z,948.01
2018-03-28T04:19:40.159Z,948.04
2018-03-28T04:20:40.174Z,948.01
2018-03-28T04:21:41.739Z,948
2018-03-28T04:22:40.204Z,948.05
2018-03-28T04:23:40.219Z,948.09
2018-03-28T04:24:40.232Z,948.05
2018-03-28T04:25:40.250Z,948.05
2018-03-28T04:26:40.262Z,948.08
2018-03-28T04:27:40.274Z,948.14
2018-03-28T04:28:40.293Z,948.12
2018-03-28T04:29:40.311Z,948.1
2018-03-28T04:30:40.323Z,948.13
2018-03-28T04:31:40.336Z,948.17
2018-03-28T04:32:40.438Z,948.18
2018-03-28T04:33:40.369Z,948.18
2018-03-28T04:34:40.389Z,948.21
2018-03-28T04:35:40.398Z,948.16
2018-03-28T04:36:40.426Z,948.19
2018-03-28T04:37:40.432Z,948.19
2018-03-28T04:38:40.444Z,948.2
2018-03-28T04:39:40.457Z,948.17
2018-03-28T04:40:40.473Z,948.19
2018-03-28T04:41:40.489Z,948.19
2018-03-28T04:42:40.503Z,948.22
2018-03-28T04:43:40.518Z,948.18
2018-03-28T04:44:40.540Z,948.19
2018-03-28T04:45:40.550Z,948.21
2018-03-28T04:46:40.564Z,948.17
2018-03-28T04:47:40.589Z,948.22
2018-03-28T04:48:40.602Z,948.21
2018-03-28T04:49:40.610Z,948.21
2018-03-28T04:50:40.625Z,948.18
2018-03-28T04:51:40.642Z,948.21
2018-03-28T04:52:40.657Z,948.2
2018-03-28T04:53:40.671Z,948.18
2018-03-28T04:54:40.686Z,948.25
2018-03-28T04:55:40.703Z,948.18
2018-03-28T04:56:40.718Z,948.17
2018-03-28T04:57:40.731Z,948.23
2018-03-28T04:58:40.748Z,948.22
2018-03-28T04:59:40.762Z,948.28
2018-03-28T05:00:40.778Z,948.24
2018-03-28T05:01:40.793Z,948.22
2018-03-28T05:02:40.810Z,948.25
2018-03-28T05:03:40.826Z,948.31
2018-03-28T05:04:40.841Z,948.24
2018-03-28T05:05:40.857Z,948.28
2018-03-28T05:06:40.872Z,948.22
2018-03-28T05:07:40.888Z,948.26
2018-03-28T05:08:40.902Z,948.24
2018-03-28T05:09:40.938Z,948.24
2018-03-28T05:10:40.933Z,948.26
2018-03-28T05:11:40.953Z,948.31
2018-03-28T05:12:40.964Z,948.3
2018-03-28T05:13:40.977Z,948.28
2018-03-28T05:14:40.991Z,948.26
2018-03-28T05:15:41.080Z,948.23
2018-03-28T05:16:41.023Z,948.28
2018-03-28T05:17:41.042Z,948.25
2018-03-28T05:18:41.058Z,948.29
2018-03-28T05:19:41.071Z,948.3
2018-03-28T05:20:41.087Z,948.23
2018-03-28T05:21:41.103Z,948.24
2018-03-28T05:22:41.185Z,948.25
2018-03-28T05:23:41.136Z,948.27
2018-03-28T05:24:41.153Z,948.26
2018-03-28T05:25:41.165Z,948.32
2018-03-28T05:26:41.180Z,948.26
2018-03-28T05:27:41.195Z,948.33
2018-03-28T05:28:41.211Z,948.28
2018-03-28T05:29:41.227Z,948.29
2018-03-28T05:30:41.241Z,948.23
2018-03-28T05:31:41.257Z,948.26
2018-03-28T05:32:41.272Z,948.23
2018-03-28T05:33:41.290Z,948.29
2018-03-28T05:34:41.303Z,948.34
2018-03-28T05:35:41.320Z,948.25
2018-03-28T05:36:41.336Z,948.31
2018-03-28T05:37:41.394Z,948.32
2018-03-28T05:38:41.367Z,948.29
2018-03-28T05:39:41.382Z,948.32
2018-03-28T05:40:41.398Z,948.32
2018-03-28T05:41:41.417Z,948.31
2018-03-28T05:42:41.429Z,948.34
2018-03-28T05:43:41.446Z,948.36
2018-03-28T05:44:41.459Z,948.46
2018-03-28T05:45:41.477Z,948.39
2018-03-28T05:46:41.494Z,948.45
2018-03-28T05:47:41.508Z,948.43
2018-03-28T05:48:41.523Z,948.37
2018-03-28T05:49:41.548Z,948.4
2018-03-28T05:50:41.555Z,948.39
2018-03-28T05:51:41.572Z,948.45
2018-03-28T05:52:41.587Z,948.4
2018-03-28T05:53:41.603Z,948.38
2018-03-28T05:54:41.620Z,948.32
2018-03-28T05:55:41.633Z,948.36
2018-03-28T05:56:41.650Z,948.34
2018-03-28T05:57:41.669Z,948.42
2018-03-28T05:58:41.682Z,948.49
2018-03-28T05:59:41.697Z,948.44
2018-03-28T06:00:41.721Z,948.42
2018-03-28T06:01:41.729Z,948.47
2018-03-28T06:02:41.746Z,948.57
2018-03-28T06:03:41.760Z,948.45
2018-03-28T06:04:41.782Z,948.43
2018-03-28T06:05:41.792Z,948.42
2018-03-28T06:06:41.808Z,948.43
2018-03-28T06:07:41.824Z,948.47
2018-03-28T06:08:41.839Z,948.48
2018-03-28T06:09:41.857Z,948.43
2018-03-28T06:10:41.871Z,948.46
2018-03-28T06:11:41.887Z,948.48
2018-03-28T06:12:41.903Z,948.39
2018-03-28T06:13:41.936Z,948.44
2018-03-28T06:14:41.935Z,948.42
2018-03-28T06:15:41.952Z,948.41
2018-03-28T06:16:41.966Z,948.42
2018-03-28T06:17:41.982Z,948.37
2018-03-28T06:18:41.999Z,948.41
2018-03-28T06:19:42.014Z,948.38
2018-03-28T06:20:42.031Z,948.44
2018-03-28T06:21:42.046Z,948.45
2018-03-28T06:22:42.070Z,948.4
2018-03-28T06:23:42.079Z,948.47
2018-03-28T06:24:42.096Z,948.49
2018-03-28T06:25:42.109Z,948.46
2018-03-28T06:26:42.125Z,948.42
2018-03-28T06:27:42.142Z,948.45
2018-03-28T06:28:42.157Z,948.4
2018-03-28T06:29:42.176Z,948.38
2018-03-28T06:30:42.197Z,948.42
2018-03-28T06:31:42.209Z,948.38
2018-03-28T06:32:42.223Z,948.37
2018-03-28T06:33:42.241Z,948.37
2018-03-28T06:34:42.256Z,948.32
2018-03-28T06:35:42.271Z,948.38
2018-03-28T06:36:42.287Z,948.37
2018-03-28T06:37:42.304Z,948.28
2018-03-28T06:38:42.321Z,948.34
2018-03-28T06:39:42.337Z,948.32
2018-03-28T06:40:42.354Z,948.33
2018-03-28T06:41:42.369Z,948.35
2018-03-28T06:42:42.386Z,948.39
2018-03-28T06:43:42.402Z,948.36
2018-03-28T06:44:42.421Z,948.33
2018-03-28T06:45:42.435Z,948.34
2018-03-28T06:46:42.451Z,948.31
2018-03-28T06:47:42.468Z,948.36
2018-03-28T06:48:42.535Z,948.3
2018-03-28T06:49:42.502Z,948.28
2018-03-28T06:50:42.519Z,948.32
2018-03-28T06:51:42.539Z,948.36
2018-03-28T06:52:42.550Z,948.34
2018-03-28T06:53:42.568Z,948.38
2018-03-28T06:54:42.584Z,948.37
2018-03-28T06:55:42.605Z,948.33
2018-03-28T06:56:42.617Z,948.4
2018-03-28T06:57:42.632Z,948.4
2018-03-28T06:58:42.651Z,948.4
2018-03-28T06:59:42.726Z,948.42
2018-03-28T07:00:42.686Z,948.42
2018-03-28T07:01:42.705Z,948.45
2018-03-28T07:02:42.718Z,948.41
2018-03-28T07:03:42.736Z,948.38
2018-03-28T07:04:42.753Z,948.41
2018-03-28T07:05:42.769Z,948.39
2018-03-28T07:06:42.787Z,948.4
2018-03-28T07:07:42.803Z,948.35
2018-03-28T07:08:42.821Z,948.4
2018-03-28T07:09:42.838Z,948.45
2018-03-28T07:10:42.855Z,948.38
2018-03-28T07:11:42.871Z,948.36
2018-03-28T07:12:42.890Z,948.45
2018-03-28T07:13:42.908Z,948.38
2018-03-28T07:14:42.926Z,948.33
2018-03-28T07:15:42.944Z,948.29
2018-03-28T07:16:42.960Z,948.36
2018-03-28T07:17:42.976Z,948.32
2018-03-28T07:18:42.995Z,948.37
2018-03-28T07:19:43.011Z,948.34
2018-03-28T07:20:43.124Z,948.3
2018-03-28T07:21:43.047Z,948.33
2018-03-28T07:22:43.064Z,948.41
2018-03-28T07:23:43.081Z,948.41
2018-03-28T07:24:43.150Z,948.47
2018-03-28T07:25:43.121Z,948.44
2018-03-28T07:26:43.134Z,948.43
2018-03-28T07:27:43.154Z,948.39
2018-03-28T07:28:43.172Z,948.43
2018-03-28T07:29:43.187Z,948.47
2018-03-28T07:30:43.207Z,948.51
2018-03-28T07:31:43.223Z,948.44
2018-03-28T07:32:43.239Z,948.48
2018-03-28T07:33:43.259Z,948.45
2018-03-28T07:34:43.326Z,948.45
2018-03-28T07:35:43.295Z,948.5
2018-03-28T07:36:43.325Z,948.52
2018-03-28T07:37:43.330Z,948.51
2018-03-28T07:38:43.348Z,948.51
2018-03-28T07:39:43.365Z,948.53
2018-03-28T07:40:43.385Z,948.5
2018-03-28T07:41:43.401Z,948.56
2018-03-28T07:42:43.421Z,948.5
2018-03-28T07:43:43.440Z,948.5
2018-03-28T07:44:43.457Z,948.5
2018-03-28T07:45:43.476Z,948.47
2018-03-28T07:46:43.491Z,948.49
2018-03-28T07:47:43.515Z,948.5
2018-03-28T07:48:43.529Z,948.51
2018-03-28T07:49:43.597Z,948.54
2018-03-28T07:50:43.565Z,948.52
2018-03-28T07:51:43.583Z,948.53
2018-03-28T07:52:43.602Z,948.57
2018-03-28T07:53:43.621Z,948.49
2018-03-28T07:54:43.640Z,948.62
2018-03-28T07:55:43.657Z,948.66
2018-03-28T07:56:43.676Z,948.55
2018-03-28T07:57:43.696Z,948.58
2018-03-28T07:58:43.714Z,948.64
2018-03-28T07:59:43.731Z,948.54
2018-03-28T08:00:43.752Z,948.6
2018-03-28T08:01:43.768Z,948.57
2018-03-28T08:02:43.787Z,948.52
2018-03-28T08:03:43.804Z,948.59
2018-03-28T08:04:43.874Z,948.52
2018-03-28T08:05:43.842Z,948.46
2018-03-28T08:06:43.863Z,948.47
2018-03-28T08:07:43.885Z,948.51
2018-03-28T08:08:43.898Z,948.49
2018-03-28T08:09:43.917Z,948.49
2018-03-28T08:10:43.937Z,948.53
2018-03-28T08:11:43.954Z,948.49
2018-03-28T08:12:43.973Z,948.41
2018-03-28T08:13:43.991Z,948.48
2018-03-28T08:14:44.009Z,948.43
2018-03-28T08:15:44.028Z,948.49
2018-03-28T08:16:44.048Z,948.43
2018-03-28T08:17:44.066Z,948.41
2018-03-28T08:18:44.085Z,948.53
2018-03-28T08:19:44.155Z,948.5
2018-03-28T08:20:44.124Z,948.49
2018-03-28T08:21:44.143Z,948.51
2018-03-28T08:22:44.161Z,948.46
2018-03-28T08:23:44.181Z,948.44
2018-03-28T08:24:44.199Z,948.39
2018-03-28T08:25:44.260Z,948.52
2018-03-28T08:26:44.239Z,948.46
2018-03-28T08:27:44.257Z,948.46
2018-03-28T08:28:44.277Z,948.52
2018-03-28T08:29:44.296Z,948.52
2018-03-28T08:30:44.316Z,948.42
2018-03-28T08:31:44.340Z,948.4
2018-03-28T08:32:44.354Z,948.44
2018-03-28T08:33:44.374Z,948.53
2018-03-28T08:34:44.402Z,948.47
2018-03-28T08:35:44.413Z,948.42
2018-03-28T08:36:44.480Z,948.32
2018-03-28T08:37:44.451Z,948.36
2018-03-28T08:38:44.470Z,948.35
2018-03-28T08:39:44.490Z,948.31
2018-03-28T08:40:44.514Z,948.33
2018-03-28T08:41:44.527Z,948.36
2018-03-28T08:42:44.549Z,948.45
2018-03-28T08:43:44.568Z,948.37
2018-03-28T08:44:44.586Z,948.41
2018-03-28T08:45:44.607Z,948.33
2018-03-28T08:46:44.676Z,948.36
2018-03-28T08:47:44.646Z,948.34
2018-03-28T08:48:44.665Z,948.37
2018-03-28T08:49:44.685Z,948.2
2018-03-28T08:50:44.706Z,948.43
2018-03-28T08:51:44.874Z,948.34
2018-03-28T08:52:44.747Z,948.41
2018-03-28T08:53:44.765Z,948.25
2018-03-28T08:54:44.784Z,948.32
2018-03-28T08:55:44.804Z,948.24
2018-03-28T08:56:44.822Z,948.22
2018-03-28T08:57:44.844Z,948.19
2018-03-28T08:58:44.863Z,948.15
2018-03-28T08:59:44.882Z,948.11
2018-03-28T09:00:44.903Z,948.31
2018-03-28T09:01:44.925Z,948.22
2018-03-28T09:02:44.943Z,948.2
2018-03-28T09:03:44.962Z,948.27
2018-03-28T09:04:44.986Z,948.19
2018-03-28T09:05:45.003Z,948.2
2018-03-28T09:06:45.074Z,948.23
2018-03-28T09:07:45.045Z,948.2
2018-03-28T09:08:45.063Z,948.2
2018-03-28T09:09:45.083Z,948.23
2018-03-28T09:10:45.102Z,948.15
2018-03-28T09:11:45.123Z,948.12
2018-03-28T09:12:45.143Z,948.2
2018-03-28T09:13:45.162Z,948.09
2018-03-28T09:14:45.183Z,948.11
2018-03-28T09:15:45.203Z,948
2018-03-28T09:16:45.222Z,948.13
2018-03-28T09:17:45.242Z,948.18
2018-03-28T09:18:45.263Z,948.17
2018-03-28T09:19:45.283Z,948.13
2018-03-28T09:20:45.304Z,948.08
2018-03-28T09:21:45.375Z,948.09
2018-03-28T09:22:45.345Z,948.03
2018-03-28T09:23:45.366Z,948.03
2018-03-28T09:24:45.385Z,947.98
2018-03-28T09:25:45.406Z,947.98
2018-03-28T09:26:45.427Z,947.97
2018-03-28T09:27:45.447Z,947.94
2018-03-28T09:28:45.467Z,947.94
2018-03-28T09:29:45.489Z,947.91
2018-03-28T09:30:45.507Z,947.86
2018-03-28T09:31:45.528Z,947.89
2018-03-28T09:32:45.549Z,947.89
2018-03-28T09:33:45.575Z,947.88
2018-03-28T09:34:45.591Z,947.83
2018-03-28T09:35:45.614Z,947.93
2018-03-28T09:36:45.632Z,947.93
2018-03-28T09:37:45.656Z,947.93
2018-03-28T09:38:45.673Z,947.86
2018-03-28T09:39:45.696Z,947.82
2018-03-28T09:40:45.721Z,947.86
2018-03-28T09:41:45.737Z,948.02
2018-03-28T09:42:45.753Z,947.92
2018-03-28T09:43:45.775Z,947.91
2018-03-28T09:44:45.797Z,947.92
2018-03-28T09:45:45.816Z,947.81
2018-03-28T09:46:45.836Z,947.88
2018-03-28T09:47:45.857Z,947.9
2018-03-28T09:48:45.878Z,947.87
2018-03-28T09:49:45.897Z,947.88
2018-03-28T09:50:45.917Z,947.84
2018-03-28T09:51:45.939Z,947.96
2018-03-28T09:52:45.959Z,947.93
2018-03-28T09:53:45.979Z,947.88
2018-03-28T09:54:45.999Z,947.92
2018-03-28T09:55:46.018Z,948.02
2018-03-28T09:56:46.042Z,947.96
2018-03-28T09:57:46.060Z,947.92
2018-03-28T09:58:46.080Z,947.83
2018-03-28T09:59:46.104Z,947.84
2018-03-28T10:00:46.121Z,947.92
2018-03-28T10:01:46.143Z,947.77
2018-03-28T10:02:46.163Z,947.9
2018-03-28T10:03:46.184Z,947.93
2018-03-28T10:04:46.213Z,947.81
2018-03-28T10:05:46.223Z,947.86
2018-03-28T10:06:46.243Z,947.85
2018-03-28T10:07:46.265Z,947.81
2018-03-28T10:08:46.284Z,947.87
2018-03-28T10:09:46.304Z,947.69
2018-03-28T10:10:46.324Z,947.82
2018-03-28T10:11:46.344Z,947.73
2018-03-28T10:12:46.364Z,947.61
2018-03-28T10:13:46.383Z,947.7
2018-03-28T10:14:46.405Z,947.65
2018-03-28T10:15:46.422Z,947.69
2018-03-28T10:16:46.441Z,947.65
2018-03-28T10:17:46.462Z,947.67
2018-03-28T10:18:46.481Z,947.67
2018-03-28T10:19:46.507Z,947.66
2018-03-28T10:20:46.525Z,947.73
2018-03-28T10:21:46.541Z,947.58
2018-03-28T10:22:46.558Z,947.67
2018-03-28T10:23:46.579Z,947.74
2018-03-28T10:24:46.598Z,947.71
2018-03-28T10:25:46.619Z,947.63
2018-03-28T10:26:46.641Z,947.66
2018-03-28T10:27:46.659Z,947.62
2018-03-28T10:28:46.678Z,947.58
2018-03-28T10:29:46.744Z,947.55
2018-03-28T10:30:46.716Z,947.61
2018-03-28T10:31:46.741Z,947.51
2018-03-28T10:32:46.758Z,947.54
2018-03-28T10:33:46.776Z,947.43
2018-03-28T10:34:46.796Z,947.5
2018-03-28T10:35:46.816Z,947.54
2018-03-28T10:36:46.835Z,947.49
2018-03-28T10:37:46.853Z,947.52
2018-03-28T10:38:46.874Z,947.47
2018-03-28T10:39:46.893Z,947.46
2018-03-28T10:40:46.913Z,947.49
2018-03-28T10:41:46.937Z,947.5
2018-03-28T10:42:46.953Z,947.51
2018-03-28T10:43:46.975Z,947.5
2018-03-28T10:44:46.995Z,947.48
2018-03-28T10:45:47.015Z,947.5
2018-03-28T10:46:47.034Z,947.47
2018-03-28T10:47:47.060Z,947.56
2018-03-28T10:48:47.083Z,947.56
2018-03-28T10:49:47.093Z,947.46
2018-03-28T10:50:47.112Z,947.55
2018-03-28T10:51:47.138Z,947.52
2018-03-28T10:52:47.177Z,947.52
2018-03-28T10:53:47.177Z,947.5
2018-03-28T10:54:47.199Z,947.49
2018-03-28T10:55:47.220Z,947.64
2018-03-28T10:56:47.235Z,947.43
2018-03-28T10:57:47.255Z,947.47
2018-03-28T10:58:47.279Z,947.53
2018-03-28T10:59:47.294Z,947.46
2018-03-28T11:00:47.313Z,947.48
2018-03-28T11:01:47.335Z,947.37
2018-03-28T11:02:47.354Z,947.4
2018-03-28T11:03:47.377Z,947.36
2018-03-28T11:04:47.394Z,947.42
2018-03-28T11:05:47.413Z,947.36
2018-03-28T11:06:47.434Z,947.53
2018-03-28T11:07:47.468Z,947.39
2018-03-28T11:08:47.475Z,947.46
2018-03-28T11:09:47.497Z,947.36
2018-03-28T11:10:47.517Z,947.38
2018-03-28T11:11:47.536Z,947.24
2018-03-28T11:12:47.556Z,947.38
2018-03-28T11:13:47.574Z,947.4
2018-03-28T11:14:47.596Z,947.38
2018-03-28T11:15:47.616Z,947.34
2018-03-28T11:16:47.635Z,947.25
2018-03-28T11:17:47.655Z,947.21
2018-03-28T11:18:47.677Z,947.19
2018-03-28T11:19:47.697Z,947.15
2018-03-28T11:20:47.718Z,947.28
2018-03-28T11:21:47.737Z,947.14
2018-03-28T11:22:47.760Z,947.16
2018-03-28T11:23:47.780Z,947.23
2018-03-28T11:24:47.800Z,947.26
2018-03-28T11:25:47.820Z,947.13
2018-03-28T11:26:47.840Z,947.12
2018-03-28T11:27:47.913Z,947.14
2018-03-28T11:28:47.881Z,947.26
2018-03-28T11:29:47.903Z,947.15
2018-03-28T11:30:47.922Z,947.16
2018-03-28T11:31:47.944Z,947.16
2018-03-28T11:32:47.964Z,947.1
2018-03-28T11:33:47.985Z,947.04
2018-03-28T11:34:48.008Z,947.27
2018-03-28T11:35:48.023Z,947.16
2018-03-28T11:36:48.044Z,947.13
2018-03-28T11:37:48.165Z,947.07
2018-03-28T11:38:48.085Z,947.15
2018-03-28T11:39:48.104Z,947.14
2018-03-28T11:40:48.126Z,947.05
2018-03-28T11:41:48.146Z,947.27
2018-03-28T11:42:48.268Z,947.07
2018-03-28T11:43:48.186Z,947.07
2018-03-28T11:44:48.208Z,947.02
2018-03-28T11:45:48.248Z,946.92
2018-03-28T11:46:48.247Z,947.06
2018-03-28T11:47:48.317Z,947
2018-03-28T11:48:48.286Z,946.89
2018-03-28T11:49:48.307Z,947.03
2018-03-28T11:50:48.326Z,946.92
2018-03-28T11:51:48.346Z,946.9
2018-03-28T11:52:48.367Z,946.92
2018-03-28T11:53:48.389Z,946.92
2018-03-28T11:54:48.422Z,946.87
2018-03-28T11:55:48.438Z,947.07
2018-03-28T11:56:48.451Z,946.99
2018-03-28T11:57:48.473Z,946.86
2018-03-28T11:58:48.494Z,946.89
2018-03-28T11:59:48.512Z,946.85
2018-03-28T12:00:48.535Z,946.88
2018-03-28T12:01:48.552Z,946.82
2018-03-28T12:02:48.625Z,946.88
2018-03-28T12:03:48.595Z,946.84
2018-03-28T12:04:48.613Z,946.76
2018-03-28T12:05:48.634Z,946.75
2018-03-28T12:06:48.654Z,946.71
2018-03-28T12:07:48.677Z,946.84
2018-03-28T12:08:48.696Z,946.7
2018-03-28T12:09:48.715Z,946.74
2018-03-28T12:10:48.736Z,946.69
2018-03-28T12:11:48.757Z,946.77
2018-03-28T12:12:48.776Z,946.69
2018-03-28T12:13:48.796Z,946.66
2018-03-28T12:14:48.816Z,946.72
2018-03-28T12:15:48.836Z,946.62
2018-03-28T12:16:48.857Z,946.64
2018-03-28T12:17:48.925Z,946.65
2018-03-28T12:18:48.894Z,946.68
2018-03-28T12:19:48.913Z,946.64
2018-03-28T12:20:48.933Z,946.7
2018-03-28T12:21:48.957Z,946.61
2018-03-28T12:22:48.972Z,946.55
2018-03-28T12:23:48.992Z,946.64
2018-03-28T12:24:49.011Z,946.61
2018-03-28T12:25:49.037Z,946.67
2018-03-28T12:26:49.107Z,946.6
2018-03-28T12:27:49.071Z,946.59
2018-03-28T12:28:49.091Z,946.64
2018-03-28T12:29:49.110Z,946.67
2018-03-28T12:30:49.127Z,946.71
2018-03-28T12:31:49.149Z,946.57